TOURFACTS.DK  
Stats and Facts from Tour de France.

Tour de France 2019 starts in 348 days
  Riders   Stages   Teams   Summits   Yearly  


 
Search by year

After 2018 - Stage 14:
 15000 starters.
  5163 different riders.
  639 teams.
  2246 stages.
  456 restdays.
  441957.60 km.
  5678 abandonnees.


Top 3
GC
Christopher Froome86:20:55
Rigoberto Urán86:21:49
Romain Bardet86:23:15
Climb
Warren Barguil169 pt.
Primoz Roglic80 pt.
Thomas De Gendt64 pt.
Sprint
Michael Matthews359 pt.
André Greipel234 pt.
Edvald Boasson Hagen220 pt.
Youth
Simon Yates86:27:09
Louis Meintjes86:29:15
Emanuel Buchmann86:54:16
Facts from Tour de France 1931
  |   Stages.  |   Stage winners.  |   Days in yellow  |   Average speed.  |   Route.  |   Teams.  |   All riders.  |   Rookies.  |  

  |   Withdrawls.  |   GC.  |   Polka  |   Green  |   White  |   Summits. (In tour)  |   Miscellaneous.  |  

Stage 8 on July 7th. 1931
         Owning:    Charles Pelissier    
Pick a stage:  1 2 3 4 5 6 7 8 9 10 11 12 13 14 15 16 17 18 19 20 21 22 23 24
From: Bayonne    To: PauDist:106.00 km.

Average speed for all riders in stage:  30,604 km./hr.
    Place:Name:Team:Time:Km/h:
FRACharles PelissierFRAFrance03:24:20  +  00:00:00=31,126 
GERErich MetzeDEUGermany03:24:20  +  00:00:00=31,126 
FRAAndré LeducqFRAFrance03:24:20  +  00:00:00=31,126 
4 BELAchille ViaeneTouristes Routiers03:24:20  +  00:00:00=31,126 
5 GEROskar ThierbachDEUGermany03:24:20  +  00:00:00=31,126 
6 ITAFabio BattesiniITAItaly03:24:25  +  00:00:05=31,113 
7 ITARafaële Di PacoITAItaly03:24:25  +  00:00:05=31,113 
8 BELBernard Van RysselbergheBELBelgium03:24:25  +  00:00:05=31,113 
9 BELGaston RebryBELBelgium03:24:25  +  00:00:05=31,113 
10 FRALouis PeglionFRAFrance03:24:25  +  00:00:05=31,113 
11 FRAJean MaréchalFRAFrance03:24:25  +  00:00:05=31,113 
12 BELAlfons SchepersBELBelgium03:26:19  +  00:01:59=30,826 
13 FRAFrancis BouilletTouristes Routiers03:26:19  +  00:01:59=30,826 
14 BELAlfred HamerlinckBELBelgium03:26:19  +  00:01:59=30,826 
15 BELRomain GijsselsBELBelgium03:26:19  +  00:01:59=30,826 
16 BELJef DemuysereBELBelgium03:26:19  +  00:01:59=30,826 
17 BELJulien VervaeckeBELBelgium03:26:19  +  00:01:59=30,826 
18 BELMaurice De WaeleBELBelgium03:26:19  +  00:01:59=30,826 
19 ITALuigi GiacobbeITAItaly03:26:19  +  00:01:59=30,826 
20 AUSHubert OppermanCHEAustralia-Switzerland03:26:19  +  00:01:59=30,826 
21 AUSRichard LambCHEAustralia-Switzerland03:26:19  +  00:01:59=30,826 
22 GERLudwig GeyerDEUGermany03:26:19  +  00:01:59=30,826 
23 GERHerbert SieronskiDEUGermany03:26:19  +  00:01:59=30,826 
24 GERKarl AltenburgerDEUGermany03:26:19  +  00:01:59=30,826 
25 FRAAntonin MagneFRAFrance03:26:19  +  00:01:59=30,826 
26 AUTMax BullaTouristes Routiers03:26:19  +  00:01:59=30,826 
27 BELJean NaertTouristes Routiers03:26:19  +  00:01:59=30,826 
28 ITAFrancesco CamussoITAItaly03:27:13  +  00:02:53=30,693 
29 FRAMarius GuiramandTouristes Routiers03:27:53  +  00:03:33=30,594 
30 FRARené BernardTouristes Routiers03:27:53  +  00:03:33=30,594 
31 FRAAdrien ButtafocchiTouristes Routiers03:27:53  +  00:03:33=30,594 
32 BELJules GoedhuysTouristes Routiers03:27:53  +  00:03:33=30,594 
33 ITAEugenio GestriITAItaly03:28:09  +  00:03:49=30,555 
34 GERKurt StöpelDEUGermany03:28:09  +  00:03:49=30,555 
35 FRALéon Le CalvezFRAFrance03:28:09  +  00:03:49=30,555 
36 FRABenoit FaureFRAFrance03:28:09  +  00:03:49=30,555 
37 GERHermann BuseDEUGermany03:28:09  +  00:03:49=30,555 
38 POLAlfred SiegelDEUGermany03:28:09  +  00:03:49=30,555 
39 FRAAndré GodinatTouristes Routiers03:28:09  +  00:03:49=30,555 
40 SUIGeorges AntenenCHEAustralia-Switzerland03:28:09  +  00:03:49=30,555 
41 FRARobert BrugéreTouristes Routiers03:28:09  +  00:03:49=30,555 
42 SUIAlbert BüchiCHEAustralia-Switzerland03:28:09  +  00:03:49=30,555 
43 ITAGiuseppe PanceraTouristes Routiers03:28:09  +  00:03:49=30,555 
44 ITAAntonio PesentiITAItaly03:28:09  +  00:03:49=30,555 
45 GERKurt NitzschkeTouristes Routiers03:28:09  +  00:03:49=30,555 
46 GERErich UssatTouristes Routiers03:28:09  +  00:03:49=30,555 
47 BELGerard LonckeTouristes Routiers03:28:09  +  00:03:49=30,555 
48 FRAFrancois HenriTouristes Routiers03:29:24  +  00:05:04=30,372 
49 ITAMichele OrecchiaITAItaly03:29:24  +  00:05:04=30,372 
50 ITAFelice GremoITAItaly03:29:24  +  00:05:04=30,372 
51 FRAJean BidotTouristes Routiers03:29:24  +  00:05:04=30,372 
52 ITAAlessandro CatalaniTouristes Routiers03:29:24  +  00:05:04=30,372 
53 FRALazare VenotTouristes Routiers03:29:24  +  00:05:04=30,372 
54 FRAFernand FayolleTouristes Routiers03:29:24  +  00:05:04=30,372 
55 FRALouis BajardTouristes Routiers03:29:24  +  00:05:04=30,372 
56 FRAJoseph MauclairFRAFrance03:29:24  +  00:05:04=30,372 
57 FRAGeorges BertonTouristes Routiers03:29:24  +  00:05:04=30,372 
58 BELAuguste Van TrichtTouristes Routiers03:31:10  +  00:06:50=30,118 
59 SUIRoger PipozCHEAustralia-Switzerland03:31:10  +  00:06:50=30,118 
60 FRAAndré Van VierstTouristes Routiers03:31:10  +  00:06:50=30,118 
61 FRAFrancois FavéTouristes Routiers03:31:10  +  00:06:50=30,118 
62 BELRobert Van GrootenbrueleTouristes Routiers03:31:34  +  00:07:14=30,061 
63 ESPFrancisco CepedaESPSpain03:32:50  +  00:08:30=29,883 
64 ITAAmulio ViarengoTouristes Routiers03:36:39  +  00:12:19=29,356 
65 BELFrançois MoreelsTouristes Routiers03:38:13  +  00:13:53=29,145 


Todays birthdays.

1877  Antoine Perrichon
1878  Auguste Berthault
1911  Théo Herckenrath
1924  Carlo Lafranchi
1931  Armand Di Caro
1937  Jean-Claude Lebaube
1951  Giovanni Battaglin
1961  Pascal Jules
1962  Jean-Claude Leclercq
1976  Janek Tombak
1978  Francisco Pérez
1983  Dries Devenyns




Visits: